Time;durP1;ratioP1;P1;durP2;ratioP2;P2;SDS_P1;SDS_P2;PMS_P1;PMS_P2;Temp;Humidity;BMP_temperature;BMP_pressure;BME280_temperature;BME280_humidity;BME280_pressure;Samples;Min_cycle;Max_cycle;Signal;HPM_P1;HPM_P2
2022/10/24 00:01:49;;;;;;;;;;;19.90;64.10;;;;;;5087602;28;19916;-60
2022/10/24 00:04:15;;;;;;;;;;;19.90;64.20;;;;;;5054563;28;19915;-59
2022/10/24 00:06:40;;;;;;;;;;;19.90;64.30;;;;;;5072505;28;20314;-59
2022/10/24 00:09:06;;;;;;;;;;;19.90;64.20;;;;;;5084724;28;20279;-59
2022/10/24 00:11:31;;;;;;;;;;;19.90;64.40;;;;;;5092500;28;19957;-59
2022/10/24 00:13:58;;;;;;;;;;;19.80;64.40;;;;;;5092651;28;19908;-59
2022/10/24 00:16:24;;;;;;;;;;;19.80;64.40;;;;;;5074872;28;20367;-59
2022/10/24 00:18:49;;;;;;;;;;;19.80;64.50;;;;;;5092725;28;19974;-59
2022/10/24 00:21:15;;;;;;;;;;;19.80;64.40;;;;;;5074499;28;19908;-58
2022/10/24 00:23:40;;;;;;;;;;;19.80;64.50;;;;;;5092687;28;19915;-59
2022/10/24 00:26:05;;;;;;;;;;;19.80;64.40;;;;;;5091637;28;19915;-59
2022/10/24 00:28:31;;;;;;;;;;;19.90;64.50;;;;;;5092716;28;20467;-59
2022/10/24 00:30:57;;;;;;;;;;;19.80;64.30;;;;;;5092420;28;19915;-58
2022/10/24 00:33:22;;;;;;;;;;;19.90;64.30;;;;;;5092617;28;19993;-58
2022/10/24 00:35:48;;;;;;;;;;;19.90;64.30;;;;;;5092273;28;19919;-59
2022/10/24 00:38:13;;;;;;;;;;;19.90;64.20;;;;;;5074614;28;19962;-59
2022/10/24 00:40:39;;;;;;;;;;;19.90;64.20;;;;;;5080210;28;19916;-59
2022/10/24 00:43:09;;;;;;;;;;;19.80;64.20;;;;;;5072324;28;19941;-59
2022/10/24 00:45:39;;;;;;;;;;;19.80;64.30;;;;;;5060951;28;20265;-59
2022/10/24 00:48:09;;;;;;;;;;;19.90;64.30;;;;;;5072485;28;19954;-59
2022/10/24 00:50:34;;;;;;;;;;;19.90;64.20;;;;;;5054036;28;19994;-59
2022/10/24 00:53:00;;;;;;;;;;;19.90;64.30;;;;;;5072147;28;19908;-59
2022/10/24 00:55:25;;;;;;;;;;;19.80;64.20;;;;;;5071222;28;20003;-58
2022/10/24 00:57:52;;;;;;;;;;;19.80;64.30;;;;;;5072159;28;19924;-59
2022/10/24 01:00:18;;;;;;;;;;;19.70;64.40;;;;;;5072241;28;19930;-59
2022/10/24 01:02:44;;;;;;;;;;;19.70;64.60;;;;;;5056920;28;20406;-59
2022/10/24 01:05:09;;;;;;;;;;;19.70;65.30;;;;;;5057597;28;19909;-59
2022/10/24 01:07:53;;;;;;;;;;;19.70;64.60;;;;;;5057788;28;20368;-59
2022/10/24 01:10:22;;;;;;;;;;;19.70;64.60;;;;;;5074691;28;19951;-59
2022/10/24 01:12:57;;;;;;;;;;;19.70;64.60;;;;;;5075679;28;19935;-59
2022/10/24 01:15:23;;;;;;;;;;;19.70;64.80;;;;;;5075307;28;19908;-59
2022/10/24 01:17:52;;;;;;;;;;;19.60;64.80;;;;;;5075792;28;20063;-58
2022/10/24 01:20:25;;;;;;;;;;;19.60;64.80;;;;;;5057266;28;20397;-59
2022/10/24 01:22:58;;;;;;;;;;;19.60;64.80;;;;;;5057656;28;20244;-59
2022/10/24 01:25:23;;;;;;;;;;;19.60;64.80;;;;;;5074512;28;19909;-59
2022/10/24 01:27:56;;;;;;;;;;;19.70;64.80;;;;;;5075201;28;19908;-59
2022/10/24 01:30:21;;;;;;;;;;;19.70;64.90;;;;;;5066860;28;19908;-58
2022/10/24 01:32:51;;;;;;;;;;;19.60;64.60;;;;;;5075330;28;20105;-58
2022/10/24 01:35:22;;;;;;;;;;;19.60;64.60;;;;;;5073792;28;20291;-58
2022/10/24 01:37:57;;;;;;;;;;;19.60;64.60;;;;;;5076742;28;19924;-59
2022/10/24 01:40:24;;;;;;;;;;;19.60;64.60;;;;;;5094400;28;19908;-58
2022/10/24 01:42:50;;;;;;;;;;;19.60;64.50;;;;;;5077191;28;20291;-59
2022/10/24 01:45:17;;;;;;;;;;;19.70;64.40;;;;;;5076903;28;19940;-59
2022/10/24 01:47:45;;;;;;;;;;;19.70;64.20;;;;;;5077244;28;20286;-59
2022/10/24 01:50:11;;;;;;;;;;;19.80;64.00;;;;;;5094860;28;20002;-59
2022/10/24 01:52:37;;;;;;;;;;;19.80;63.80;;;;;;5077445;28;19939;-59
2022/10/24 01:55:03;;;;;;;;;;;19.80;63.80;;;;;;5093994;28;19909;-58
2022/10/24 01:57:28;;;;;;;;;;;19.80;63.70;;;;;;5076750;28;19922;-58
2022/10/24 01:59:54;;;;;;;;;;;19.90;63.60;;;;;;5094739;28;19909;-59
2022/10/24 02:02:24;;;;;;;;;;;19.90;63.60;;;;;;5085586;28;19909;-58
2022/10/24 02:04:50;;;;;;;;;;;19.90;63.60;;;;;;5074494;28;20283;-59
2022/10/24 02:07:16;;;;;;;;;;;19.90;63.60;;;;;;5056628;28;19920;-58
2022/10/24 02:09:42;;;;;;;;;;;19.80;63.40;;;;;;5073331;28;19919;-58
2022/10/24 02:12:07;;;;;;;;;;;19.80;63.40;;;;;;5094813;28;20287;-59
2022/10/24 02:14:34;;;;;;;;;;;19.80;63.40;;;;;;5075576;28;19916;-59
2022/10/24 02:17:00;;;;;;;;;;;19.80;63.50;;;;;;5094580;28;20351;-58
2022/10/24 02:19:26;;;;;;;;;;;19.80;63.60;;;;;;5059240;28;22181;-59
2022/10/24 02:21:54;;;;;;;;;;;19.80;63.60;;;;;;5094501;28;20394;-59
2022/10/24 02:24:27;;;;;;;;;;;19.80;63.60;;;;;;5075442;28;20423;-60
2022/10/24 02:27:01;;;;;;;;;;;19.80;63.70;;;;;;5094388;28;20315;-59
2022/10/24 02:29:28;;;;;;;;;;;19.70;63.70;;;;;;5094140;28;19914;-59
2022/10/24 02:31:54;;;;;;;;;;;19.70;63.70;;;;;;5076090;28;19917;-59
2022/10/24 02:34:20;;;;;;;;;;;19.70;63.80;;;;;;5075971;28;19913;-59
2022/10/24 02:36:45;;;;;;;;;;;19.70;63.80;;;;;;5076019;28;20318;-59
2022/10/24 02:39:11;;;;;;;;;;;19.70;63.80;;;;;;5075752;28;19959;-59
2022/10/24 02:41:36;;;;;;;;;;;19.70;63.80;;;;;;5056366;28;19912;-59
2022/10/24 02:44:02;;;;;;;;;;;19.70;64.00;;;;;;5055719;28;19915;-58
2022/10/24 02:46:27;;;;;;;;;;;19.70;63.90;;;;;;5039515;28;20354;-59
2022/10/24 02:48:59;;;;;;;;;;;19.70;63.90;;;;;;5055902;28;19908;-59
2022/10/24 02:51:26;;;;;;;;;;;19.70;63.80;;;;;;5055846;28;19908;-59
2022/10/24 02:53:51;;;;;;;;;;;19.70;63.90;;;;;;5073642;28;20360;-58
2022/10/24 02:56:16;;;;;;;;;;;19.70;64.00;;;;;;5054722;28;19909;-58
2022/10/24 02:58:42;;;;;;;;;;;19.70;64.00;;;;;;5073470;28;20003;-59
2022/10/24 03:01:07;;;;;;;;;;;19.60;63.90;;;;;;5073281;28;20372;-58
2022/10/24 03:03:33;;;;;;;;;;;19.70;64.00;;;;;;5073414;28;20356;-59
2022/10/24 03:05:58;;;;;;;;;;;19.60;63.90;;;;;;5055179;28;20279;-59
2022/10/24 03:08:24;;;;;;;;;;;19.70;64.20;;;;;;5080241;28;19913;-59
2022/10/24 03:10:49;;;;;;;;;;;19.60;64.60;;;;;;5092652;28;19908;-59
2022/10/24 03:13:14;;;;;;;;;;;19.60;64.00;;;;;;5093644;28;20421;-59
2022/10/24 03:15:40;;;;;;;;;;;19.60;64.00;;;;;;5093343;28;19959;-59
2022/10/24 03:18:05;;;;;;;;;;;19.60;64.00;;;;;;5093435;28;20015;-59
2022/10/24 03:20:31;;;;;;;;;;;19.60;64.10;;;;;;5093146;28;19915;-59
2022/10/24 03:22:56;;;;;;;;;;;19.60;64.10;;;;;;5093449;28;19915;-59
2022/10/24 03:25:22;;;;;;;;;;;19.60;64.00;;;;;;5092147;28;19953;-59
2022/10/24 03:27:47;;;;;;;;;;;19.60;64.00;;;;;;5093310;28;19962;-59
2022/10/24 03:30:12;;;;;;;;;;;19.70;63.80;;;;;;5079853;28;19909;-59
2022/10/24 03:32:38;;;;;;;;;;;19.70;63.80;;;;;;5055212;28;19913;-58
2022/10/24 03:35:03;;;;;;;;;;;19.70;63.80;;;;;;5054618;28;19954;-58
2022/10/24 03:37:29;;;;;;;;;;;19.70;63.90;;;;;;5072812;28;20387;-58
2022/10/24 03:39:54;;;;;;;;;;;19.60;63.90;;;;;;5091227;28;19947;-59
2022/10/24 03:42:20;;;;;;;;;;;19.60;63.90;;;;;;5093128;28;19908;-59
2022/10/24 03:44:45;;;;;;;;;;;19.60;63.90;;;;;;5092927;28;19915;-59
2022/10/24 03:47:11;;;;;;;;;;;19.60;63.90;;;;;;5093036;28;19909;-59
2022/10/24 03:49:36;;;;;;;;;;;19.60;63.80;;;;;;5093078;28;19915;-59
2022/10/24 03:52:01;;;;;;;;;;;19.60;63.90;;;;;;5092936;28;20335;-59
2022/10/24 03:54:27;;;;;;;;;;;19.60;63.80;;;;;;5092030;28;19939;-58
2022/10/24 03:56:52;;;;;;;;;;;19.60;63.80;;;;;;5092891;28;19970;-59
2022/10/24 03:59:18;;;;;;;;;;;19.60;63.80;;;;;;5074685;28;20014;-58
2022/10/24 04:01:43;;;;;;;;;;;19.60;63.80;;;;;;5088431;28;20007;-59
2022/10/24 04:04:09;;;;;;;;;;;19.60;63.70;;;;;;5072404;28;19916;-58
2022/10/24 04:06:34;;;;;;;;;;;19.60;63.60;;;;;;5072362;28;19916;-59
2022/10/24 04:09:00;;;;;;;;;;;19.70;63.50;;;;;;5084141;28;19908;-59
2022/10/24 04:11:25;;;;;;;;;;;19.70;63.40;;;;;;5092182;28;19915;-59
2022/10/24 04:13:51;;;;;;;;;;;19.70;63.40;;;;;;5074640;28;20367;-58
2022/10/24 04:16:17;;;;;;;;;;;19.70;63.20;;;;;;5092604;28;19915;-59
2022/10/24 04:18:42;;;;;;;;;;;19.80;63.30;;;;;;5092617;28;19916;-59
2022/10/24 04:21:08;;;;;;;;;;;19.70;63.00;;;;;;5092560;28;20045;-58
2022/10/24 04:23:37;;;;;;;;;;;19.70;63.00;;;;;;5092766;28;19951;-59
2022/10/24 04:26:03;;;;;;;;;;;19.70;63.00;;;;;;5091662;28;19908;-59
2022/10/24 04:28:29;;;;;;;;;;;19.80;63.10;;;;;;5074463;28;20371;-59
2022/10/24 04:30:55;;;;;;;;;;;19.80;63.00;;;;;;5074293;28;19953;-59
2022/10/24 04:33:20;;;;;;;;;;;19.70;63.00;;;;;;5074399;28;20007;-59
2022/10/24 04:35:46;;;;;;;;;;;19.70;63.00;;;;;;5092320;28;19994;-59
2022/10/24 04:38:11;;;;;;;;;;;19.70;63.00;;;;;;5078307;28;19961;-59
2022/10/24 04:40:37;;;;;;;;;;;19.70;63.20;;;;;;5084301;28;19908;-59
2022/10/24 04:43:02;;;;;;;;;;;19.70;63.20;;;;;;5076172;28;20271;-58
2022/10/24 04:45:27;;;;;;;;;;;19.60;63.30;;;;;;5075763;28;20229;-59
2022/10/24 04:47:53;;;;;;;;;;;19.60;63.40;;;;;;5075977;28;20453;-59
2022/10/24 04:50:18;;;;;;;;;;;19.60;63.40;;;;;;5076045;28;19909;-59
2022/10/24 04:52:44;;;;;;;;;;;19.60;63.30;;;;;;5075937;28;19958;-59
2022/10/24 04:55:09;;;;;;;;;;;19.60;63.30;;;;;;5074913;28;19990;-59
2022/10/24 04:57:35;;;;;;;;;;;19.60;63.40;;;;;;5057911;28;20364;-58
2022/10/24 05:00:00;;;;;;;;;;;19.60;63.30;;;;;;5075571;28;20351;-59
2022/10/24 05:02:26;;;;;;;;;;;19.60;63.40;;;;;;5075618;28;20360;-59
2022/10/24 05:04:51;;;;;;;;;;;19.60;63.30;;;;;;5075481;28;19958;-60
2022/10/24 05:07:19;;;;;;;;;;;19.70;63.50;;;;;;5075959;28;19923;-59
2022/10/24 05:09:44;;;;;;;;;;;19.70;63.40;;;;;;5092655;28;19916;-59
2022/10/24 05:12:10;;;;;;;;;;;19.70;63.50;;;;;;5095961;28;19908;-59
2022/10/24 05:14:35;;;;;;;;;;;19.60;63.40;;;;;;5095538;28;19908;-59
2022/10/24 05:17:01;;;;;;;;;;;19.60;63.40;;;;;;5095736;28;20291;-58
2022/10/24 05:19:26;;;;;;;;;;;19.70;63.50;;;;;;5095395;28;19908;-59
2022/10/24 05:21:52;;;;;;;;;;;19.70;63.50;;;;;;5095758;28;20291;-59
2022/10/24 05:24:17;;;;;;;;;;;19.70;63.50;;;;;;5094541;28;20040;-58
2022/10/24 05:26:43;;;;;;;;;;;19.70;63.40;;;;;;5095484;28;19917;-59
2022/10/24 05:29:08;;;;;;;;;;;19.70;63.30;;;;;;5090247;28;19920;-59
2022/10/24 05:31:33;;;;;;;;;;;19.70;63.40;;;;;;5075006;28;20367;-58
2022/10/24 05:33:59;;;;;;;;;;;19.70;63.30;;;;;;5075024;28;19920;-58
2022/10/24 05:36:24;;;;;;;;;;;19.70;63.40;;;;;;5075055;28;19908;-59
2022/10/24 05:38:50;;;;;;;;;;;19.60;63.40;;;;;;5085463;28;19916;-59
2022/10/24 05:41:15;;;;;;;;;;;19.60;63.50;;;;;;5094368;28;19915;-59
2022/10/24 05:43:41;;;;;;;;;;;19.70;63.40;;;;;;5095217;28;20260;-59
2022/10/24 05:46:06;;;;;;;;;;;19.60;64.00;;;;;;5094962;28;19908;-59
2022/10/24 05:48:32;;;;;;;;;;;19.60;63.40;;;;;;5093774;28;19908;-59
2022/10/24 05:50:57;;;;;;;;;;;19.60;63.40;;;;;;5094968;28;19915;-59
2022/10/24 05:53:23;;;;;;;;;;;19.60;63.50;;;;;;5095146;28;19908;-58
2022/10/24 05:55:48;;;;;;;;;;;19.60;63.50;;;;;;5094091;28;19935;-60
2022/10/24 05:58:19;;;;;;;;;;;19.60;63.40;;;;;;5094873;28;19913;-59
2022/10/24 06:00:45;;;;;;;;;;;19.60;63.50;;;;;;5101356;28;19908;-58
2022/10/24 06:03:11;;;;;;;;;;;19.60;63.50;;;;;;5060447;28;19931;-59
2022/10/24 06:05:36;;;;;;;;;;;19.60;63.60;;;;;;5056149;28;19921;-58
2022/10/24 06:08:02;;;;;;;;;;;19.60;63.60;;;;;;5078272;28;19916;-59
2022/10/24 06:10:27;;;;;;;;;;;19.50;63.50;;;;;;5093632;28;19915;-59
2022/10/24 06:12:52;;;;;;;;;;;19.50;63.60;;;;;;5076512;28;20313;-58
2022/10/24 06:15:18;;;;;;;;;;;19.50;63.60;;;;;;5094311;28;19912;-59
2022/10/24 06:17:43;;;;;;;;;;;19.50;63.70;;;;;;5076587;28;19951;-59
2022/10/24 06:20:09;;;;;;;;;;;19.50;63.60;;;;;;5094337;28;19958;-59
2022/10/24 06:22:34;;;;;;;;;;;19.60;63.60;;;;;;5076520;28;19914;-60
2022/10/24 06:25:00;;;;;;;;;;;19.60;63.50;;;;;;5093360;28;19991;-59
2022/10/24 06:27:26;;;;;;;;;;;19.60;63.40;;;;;;5076235;28;19908;-59
2022/10/24 06:29:51;;;;;;;;;;;19.60;63.50;;;;;;5094121;28;19908;-59
2022/10/24 06:32:17;;;;;;;;;;;19.60;63.40;;;;;;5094473;28;19908;-59
2022/10/24 06:34:42;;;;;;;;;;;19.60;63.50;;;;;;5093916;28;19908;-58
2022/10/24 06:37:07;;;;;;;;;;;19.60;63.50;;;;;;5094172;28;20540;-59
2022/10/24 06:39:33;;;;;;;;;;;19.50;63.40;;;;;;5075395;28;19912;-59
2022/10/24 06:41:59;;;;;;;;;;;19.60;63.60;;;;;;5094056;28;20000;-59
2022/10/24 06:44:25;;;;;;;;;;;19.60;63.50;;;;;;5093794;28;19915;-59
2022/10/24 06:46:50;;;;;;;;;;;19.60;63.50;;;;;;5094045;28;19908;-59
2022/10/24 06:49:16;;;;;;;;;;;19.60;63.40;;;;;;5093725;28;19908;-58
2022/10/24 06:51:41;;;;;;;;;;;19.60;63.30;;;;;;5084240;28;19915;-59
2022/10/24 06:54:07;;;;;;;;;;;19.60;63.20;;;;;;5073336;28;20338;-59
2022/10/24 06:56:32;;;;;;;;;;;19.60;63.30;;;;;;5073045;28;20449;-58
2022/10/24 06:58:58;;;;;;;;;;;19.60;63.40;;;;;;5072872;28;20473;-58
2022/10/24 07:01:23;;;;;;;;;;;19.60;63.20;;;;;;5073187;28;19955;-59
2022/10/24 07:03:49;;;;;;;;;;;19.60;63.20;;;;;;5055584;28;19966;-59
2022/10/24 07:06:15;;;;;;;;;;;19.60;63.40;;;;;;5072875;28;19916;-59
2022/10/24 07:08:41;;;;;;;;;;;19.60;63.30;;;;;;5082486;28;20026;-59
2022/10/24 07:11:06;;;;;;;;;;;19.60;63.30;;;;;;5092569;28;20002;-59
2022/10/24 07:13:32;;;;;;;;;;;19.60;63.30;;;;;;5093432;28;19947;-59
2022/10/24 07:15:57;;;;;;;;;;;19.60;63.30;;;;;;5075136;28;19915;-59
2022/10/24 07:18:23;;;;;;;;;;;19.50;63.40;;;;;;5093521;28;19961;-59
2022/10/24 07:20:48;;;;;;;;;;;19.50;63.40;;;;;;5093221;28;19913;-59
2022/10/24 07:23:14;;;;;;;;;;;19.60;63.40;;;;;;5093388;28;19915;-59
2022/10/24 07:25:39;;;;;;;;;;;19.60;63.50;;;;;;5092379;28;19909;-59
2022/10/24 07:28:05;;;;;;;;;;;19.60;63.50;;;;;;5093303;28;19908;-59
2022/10/24 07:30:31;;;;;;;;;;;19.60;63.50;;;;;;5076243;28;19919;-59
2022/10/24 07:32:56;;;;;;;;;;;19.70;63.30;;;;;;5055047;28;20003;-59
2022/10/24 07:35:22;;;;;;;;;;;19.70;63.20;;;;;;5072679;28;20024;-59
2022/10/24 07:37:48;;;;;;;;;;;19.70;63.20;;;;;;5074898;28;19978;-60
2022/10/24 07:40:13;;;;;;;;;;;19.70;63.10;;;;;;5092206;28;20283;-59
2022/10/24 07:42:39;;;;;;;;;;;19.70;63.20;;;;;;5093166;28;19999;-59
2022/10/24 07:45:06;;;;;;;;;;;19.70;63.20;;;;;;5092747;28;19915;-59
2022/10/24 07:47:31;;;;;;;;;;;19.70;63.20;;;;;;5093124;28;19962;-59
2022/10/24 07:49:57;;;;;;;;;;;19.70;63.20;;;;;;5092747;28;19908;-59
2022/10/24 07:52:22;;;;;;;;;;;19.70;63.30;;;;;;5093074;28;20002;-59
2022/10/24 07:54:48;;;;;;;;;;;19.70;63.30;;;;;;5091896;28;19908;-59
2022/10/24 07:57:13;;;;;;;;;;;19.70;63.20;;;;;;5092986;28;19919;-59
2022/10/24 07:59:38;;;;;;;;;;;19.70;63.20;;;;;;5092911;28;19965;-58
2022/10/24 08:02:04;;;;;;;;;;;19.80;63.20;;;;;;5092808;28;20371;-59
2022/10/24 08:04:30;;;;;;;;;;;19.70;63.00;;;;;;5092714;28;19912;-58
2022/10/24 08:06:55;;;;;;;;;;;19.70;63.30;;;;;;5092634;28;20003;-59
2022/10/24 08:09:21;;;;;;;;;;;19.60;63.40;;;;;;5091495;28;19912;-59
2022/10/24 08:11:46;;;;;;;;;;;19.60;63.30;;;;;;5094095;28;19914;-58
2022/10/24 08:14:12;;;;;;;;;;;19.60;63.30;;;;;;5096680;28;19954;-59
2022/10/24 08:16:37;;;;;;;;;;;19.60;63.50;;;;;;5096976;28;19955;-59
2022/10/24 08:19:02;;;;;;;;;;;19.60;63.60;;;;;;5086979;28;19920;-59
2022/10/24 08:21:30;;;;;;;;;;;19.50;63.70;;;;;;5076288;28;20361;-59
2022/10/24 08:23:55;;;;;;;;;;;19.60;63.70;;;;;;5058778;28;19962;-59
2022/10/24 08:26:21;;;;;;;;;;;19.50;63.70;;;;;;5075475;28;19916;-59
2022/10/24 08:28:47;;;;;;;;;;;19.50;63.70;;;;;;5058306;28;20035;-59
2022/10/24 08:31:13;;;;;;;;;;;19.60;63.70;;;;;;5041442;28;19947;-59
2022/10/24 08:33:39;;;;;;;;;;;19.70;63.60;;;;;;5076245;28;20430;-59
2022/10/24 08:36:06;;;;;;;;;;;19.70;63.40;;;;;;5075970;28;19939;-59
2022/10/24 08:38:31;;;;;;;;;;;19.70;63.50;;;;;;5066161;28;19912;-59
2022/10/24 08:40:57;;;;;;;;;;;19.70;63.40;;;;;;5095527;28;19958;-59
2022/10/24 08:43:22;;;;;;;;;;;19.80;63.50;;;;;;5078150;28;19913;-58
2022/10/24 08:45:54;;;;;;;;;;;19.70;63.30;;;;;;5096166;28;19915;-59
2022/10/24 08:48:26;;;;;;;;;;;19.70;63.40;;;;;;5096161;28;20294;-59
2022/10/24 08:50:52;;;;;;;;;;;19.70;63.40;;;;;;5058407;28;20279;-59
2022/10/24 08:53:21;;;;;;;;;;;19.70;63.40;;;;;;5057907;28;19908;-59
2022/10/24 08:55:48;;;;;;;;;;;19.70;63.50;;;;;;5074878;28;19916;-59
2022/10/24 08:58:15;;;;;;;;;;;19.70;63.60;;;;;;5058020;28;19987;-58
2022/10/24 09:00:43;;;;;;;;;;;19.70;63.60;;;;;;5075725;28;19988;-59
2022/10/24 09:03:21;;;;;;;;;;;19.70;63.60;;;;;;5075758;28;20409;-58
2022/10/24 09:05:48;;;;;;;;;;;19.70;63.70;;;;;;5057553;28;20390;-59
2022/10/24 09:08:32;;;;;;;;;;;19.70;63.60;;;;;;5063294;28;19908;-59
2022/10/24 09:11:01;;;;;;;;;;;19.70;63.40;;;;;;5094981;28;20268;-59
2022/10/24 09:13:27;;;;;;;;;;;19.70;63.80;;;;;;5095758;28;20286;-59
2022/10/24 09:15:52;;;;;;;;;;;19.70;63.60;;;;;;5095933;28;19908;-60
2022/10/24 09:18:20;;;;;;;;;;;19.70;63.60;;;;;;5077573;28;20313;-59
2022/10/24 09:20:45;;;;;;;;;;;19.60;63.80;;;;;;5095386;28;19994;-58
2022/10/24 09:23:10;;;;;;;;;;;19.70;63.90;;;;;;5095483;28;19940;-59
2022/10/24 09:25:36;;;;;;;;;;;19.70;63.80;;;;;;5094611;28;20382;-59
2022/10/24 09:28:02;;;;;;;;;;;19.70;63.70;;;;;;5077416;28;19908;-59
2022/10/24 09:30:27;;;;;;;;;;;19.70;63.60;;;;;;5079309;28;20003;-59
2022/10/24 09:32:53;;;;;;;;;;;19.70;63.90;;;;;;5075597;28;20383;-59
2022/10/24 09:35:23;;;;;;;;;;;19.60;64.10;;;;;;5057109;28;20299;-59
2022/10/24 09:37:50;;;;;;;;;;;19.50;64.20;;;;;;5076837;28;19913;-59
2022/10/24 09:40:22;;;;;;;;;;;19.50;64.30;;;;;;5094324;28;20389;-59
2022/10/24 09:42:57;;;;;;;;;;;19.60;64.30;;;;;;5077175;28;20007;-58
2022/10/24 09:45:41;;;;;;;;;;;19.60;64.20;;;;;;5094881;28;20385;-58
2022/10/24 09:48:22;;;;;;;;;;;19.60;64.20;;;;;;5095188;28;19908;-59
2022/10/24 09:50:48;;;;;;;;;;;19.60;64.30;;;;;;5094759;28;19950;-59
2022/10/24 09:53:21;;;;;;;;;;;19.60;64.30;;;;;;5095097;28;20319;-59
2022/10/24 09:55:47;;;;;;;;;;;19.60;64.40;;;;;;5075739;28;19908;-59
2022/10/24 09:58:16;;;;;;;;;;;19.60;64.10;;;;;;5076743;28;19923;-59
2022/10/24 10:00:42;;;;;;;;;;;19.70;64.10;;;;;;5076577;28;19955;-59
2022/10/24 10:03:20;;;;;;;;;;;19.70;64.00;;;;;;5095245;28;19948;-59
2022/10/24 10:05:46;;;;;;;;;;;19.60;64.00;;;;;;5076302;28;19912;-59
2022/10/24 10:08:15;;;;;;;;;;;19.60;64.30;;;;;;5076981;28;19999;-59
2022/10/24 10:10:40;;;;;;;;;;;19.60;64.40;;;;;;5075767;28;19915;-60
2022/10/24 10:13:22;;;;;;;;;;;19.60;64.50;;;;;;5076655;28;19909;-60
2022/10/24 10:15:49;;;;;;;;;;;19.50;64.50;;;;;;5077093;28;20367;-59
2022/10/24 10:18:23;;;;;;;;;;;19.50;64.70;;;;;;5090436;28;20015;-60
2022/10/24 10:20:59;;;;;;;;;;;19.50;64.80;;;;;;5074152;28;19936;-59
2022/10/24 10:23:26;;;;;;;;;;;19.50;64.80;;;;;;5074341;28;19909;-59
2022/10/24 10:26:10;;;;;;;;;;;19.50;64.90;;;;;;5073425;28;20280;-59
2022/10/24 10:28:39;;;;;;;;;;;19.60;65.00;;;;;;5074153;28;19909;-60
2022/10/24 10:31:04;;;;;;;;;;;19.60;64.80;;;;;;5055834;28;19908;-60
2022/10/24 10:33:35;;;;;;;;;;;19.60;64.70;;;;;;5039059;28;20344;-60
2022/10/24 10:36:09;;;;;;;;;;;19.70;64.80;;;;;;5055322;28;19909;-59
2022/10/24 10:38:37;;;;;;;;;;;19.70;64.70;;;;;;5064377;28;19912;-60
2022/10/24 10:41:03;;;;;;;;;;;19.70;64.60;;;;;;5093070;28;19908;-59
2022/10/24 10:43:34;;;;;;;;;;;19.70;64.60;;;;;;5094058;28;19912;-59
2022/10/24 10:46:05;;;;;;;;;;;19.70;64.50;;;;;;5093722;28;19912;-59
2022/10/24 10:48:49;;;;;;;;;;;19.80;64.60;;;;;;5093911;28;19915;-59
2022/10/24 10:51:31;;;;;;;;;;;19.70;64.50;;;;;;5087819;28;20011;-59
2022/10/24 10:54:16;;;;;;;;;;;19.70;64.50;;;;;;5062445;28;19909;-59
2022/10/24 10:56:44;;;;;;;;;;;19.70;64.60;;;;;;5073082;28;19908;-59
2022/10/24 10:59:28;;;;;;;;;;;19.70;64.60;;;;;;5073330;28;19965;-59
2022/10/24 11:01:59;;;;;;;;;;;19.70;64.70;;;;;;5073244;28;20049;-59
2022/10/24 11:04:25;;;;;;;;;;;19.70;64.60;;;;;;5055082;28;19912;-59
2022/10/24 11:07:06;;;;;;;;;;;19.70;64.60;;;;;;5073295;28;19921;-59
2022/10/24 11:09:47;;;;;;;;;;;19.70;64.60;;;;;;5070715;28;19961;-59
2022/10/24 11:12:18;;;;;;;;;;;19.70;64.60;;;;;;5093644;28;19995;-59
2022/10/24 11:14:45;;;;;;;;;;;19.70;64.50;;;;;;5093325;28;19915;-59
2022/10/24 11:17:20;;;;;;;;;;;19.70;64.50;;;;;;5075296;28;19916;-59
2022/10/24 11:19:54;;;;;;;;;;;19.70;64.40;;;;;;5093146;28;19908;-59
2022/10/24 11:22:28;;;;;;;;;;;19.70;64.40;;;;;;5093442;28;19908;-59
2022/10/24 11:24:58;;;;;;;;;;;19.70;64.50;;;;;;5074155;28;19908;-59
2022/10/24 11:27:29;;;;;;;;;;;19.70;64.40;;;;;;5075155;28;19916;-60
2022/10/24 11:30:01;;;;;;;;;;;19.70;64.50;;;;;;5063533;28;20364;-59
2022/10/24 11:32:30;;;;;;;;;;;19.70;64.50;;;;;;5055104;28;19962;-59
2022/10/24 11:35:14;;;;;;;;;;;19.70;64.30;;;;;;5054794;28;19908;-59
2022/10/24 11:37:40;;;;;;;;;;;19.70;64.30;;;;;;5073647;28;19962;-59
2022/10/24 11:40:10;;;;;;;;;;;19.70;64.20;;;;;;5074057;28;20003;-58
2022/10/24 11:42:47;;;;;;;;;;;19.70;64.30;;;;;;5075177;28;19909;-59
2022/10/24 11:45:19;;;;;;;;;;;19.70;64.20;;;;;;5074864;28;19912;-59
2022/10/24 11:48:02;;;;;;;;;;;19.70;64.10;;;;;;5092981;28;19912;-59
2022/10/24 11:50:38;;;;;;;;;;;19.70;64.10;;;;;;5092753;28;20382;-59
2022/10/24 11:53:11;;;;;;;;;;;19.70;64.10;;;;;;5092916;28;19957;-59
2022/10/24 11:55:37;;;;;;;;;;;19.70;64.00;;;;;;5092113;28;19908;-59
2022/10/24 11:58:06;;;;;;;;;;;19.70;64.10;;;;;;5074855;28;19920;-59
2022/10/24 12:00:35;;;;;;;;;;;19.70;64.00;;;;;;5074918;28;20264;-59
2022/10/24 12:03:19;;;;;;;;;;;19.70;63.90;;;;;;5074871;28;19912;-59
2022/10/24 12:05:44;;;;;;;;;;;19.70;63.90;;;;;;5092340;28;19912;-59
2022/10/24 12:08:10;;;;;;;;;;;19.70;63.80;;;;;;5092784;28;19908;-59
2022/10/24 12:10:38;;;;;;;;;;;19.70;63.80;;;;;;5091635;28;19962;-59
2022/10/24 12:13:03;;;;;;;;;;;19.70;63.80;;;;;;5092742;28;20351;-59
2022/10/24 12:15:37;;;;;;;;;;;19.70;63.90;;;;;;5092518;28;19950;-59
2022/10/24 12:18:09;;;;;;;;;;;19.70;63.80;;;;;;5073563;28;20387;-59
2022/10/24 12:20:34;;;;;;;;;;;19.70;63.80;;;;;;5072189;28;19915;-59
2022/10/24 12:23:00;;;;;;;;;;;19.70;63.70;;;;;;5054523;28;19912;-59
2022/10/24 12:25:31;;;;;;;;;;;19.70;63.80;;;;;;5071530;28;20279;-58
2022/10/24 12:28:19;;;;;;;;;;;19.70;63.70;;;;;;5072685;28;19912;-59
2022/10/24 12:31:07;;;;;;;;;;;19.70;63.70;;;;;;5063852;28;19931;-59
2022/10/24 12:33:32;;;;;;;;;;;19.70;63.70;;;;;;5072367;28;20003;-59
2022/10/24 12:35:58;;;;;;;;;;;19.70;63.70;;;;;;5072111;28;19943;-59
2022/10/24 12:38:26;;;;;;;;;;;19.70;63.70;;;;;;5061210;28;19912;-59
2022/10/24 12:40:54;;;;;;;;;;;19.70;63.80;;;;;;5091380;28;19908;-59
2022/10/24 12:43:31;;;;;;;;;;;19.70;63.80;;;;;;5092418;28;19912;-59
2022/10/24 12:46:00;;;;;;;;;;;19.70;63.70;;;;;;5092143;28;19915;-59
2022/10/24 12:48:30;;;;;;;;;;;19.70;63.60;;;;;;5074732;28;20011;-60
2022/10/24 12:50:56;;;;;;;;;;;19.70;63.50;;;;;;5070953;28;19908;-60
2022/10/24 12:53:32;;;;;;;;;;;19.80;63.60;;;;;;5054194;28;19909;-60
2022/10/24 12:55:58;;;;;;;;;;;19.70;63.60;;;;;;5053037;28;19916;-59
2022/10/24 12:58:24;;;;;;;;;;;19.70;63.50;;;;;;5074211;28;19912;-59
2022/10/24 13:00:53;;;;;;;;;;;19.70;63.60;;;;;;5075593;28;19999;-59
2022/10/24 13:03:29;;;;;;;;;;;19.70;63.60;;;;;;5057969;28;20298;-59
2022/10/24 13:05:57;;;;;;;;;;;19.70;63.70;;;;;;5054206;28;19913;-59
2022/10/24 13:08:29;;;;;;;;;;;19.70;63.70;;;;;;5062290;28;20034;-59
2022/10/24 13:11:01;;;;;;;;;;;19.70;63.60;;;;;;5074654;28;20291;-59
2022/10/24 13:13:34;;;;;;;;;;;19.70;63.50;;;;;;5075673;28;20387;-58
2022/10/24 13:16:19;;;;;;;;;;;19.70;63.60;;;;;;5074124;28;19912;-59
2022/10/24 13:18:54;;;;;;;;;;;19.70;63.40;;;;;;5075432;28;19924;-59
2022/10/24 13:21:42;;;;;;;;;;;19.70;63.50;;;;;;5075303;28;20379;-59
2022/10/24 13:24:09;;;;;;;;;;;19.70;63.50;;;;;;5069237;28;19908;-60
2022/10/24 13:26:42;;;;;;;;;;;19.70;63.40;;;;;;5073774;28;19993;-60
2022/10/24 13:29:30;;;;;;;;;;;19.80;64.20;;;;;;5073997;28;19970;-59
2022/10/24 13:32:02;;;;;;;;;;;19.80;63.30;;;;;;5046340;28;19908;-58
2022/10/24 13:34:33;;;;;;;;;;;19.80;63.10;;;;;;5075375;28;20458;-59
2022/10/24 13:37:05;;;;;;;;;;;19.80;63.00;;;;;;5075364;28;19909;-60
2022/10/24 13:39:32;;;;;;;;;;;19.80;63.00;;;;;;5072946;28;19908;-60
2022/10/24 13:42:01;;;;;;;;;;;19.80;63.00;;;;;;5059522;28;19908;-60
2022/10/24 13:44:36;;;;;;;;;;;19.80;63.10;;;;;;5055120;28;20386;-59
2022/10/24 13:47:06;;;;;;;;;;;19.80;62.80;;;;;;5037078;28;20431;-60
2022/10/24 13:49:33;;;;;;;;;;;19.90;62.70;;;;;;5053613;28;20375;-60
2022/10/24 13:52:16;;;;;;;;;;;19.90;62.60;;;;;;5054872;28;19916;-60
2022/10/24 13:54:42;;;;;;;;;;;19.90;62.60;;;;;;5052687;28;19920;-59
2022/10/24 13:57:24;;;;;;;;;;;19.90;62.50;;;;;;5053508;28;19909;-59
2022/10/24 13:59:57;;;;;;;;;;;19.90;62.60;;;;;;5054381;28;20047;-59
2022/10/24 14:02:24;;;;;;;;;;;19.90;62.50;;;;;;5053520;28;20283;-60
2022/10/24 14:04:49;;;;;;;;;;;19.90;62.30;;;;;;5053289;28;20007;-59
2022/10/24 14:07:41;;;;;;;;;;;19.90;62.10;;;;;;5070787;28;19982;-60
2022/10/24 14:10:09;;;;;;;;;;;19.90;62.00;;;;;;5069253;28;19913;-60
2022/10/24 14:12:35;;;;;;;;;;;19.90;62.20;;;;;;5056771;28;19908;-59
2022/10/24 14:15:01;;;;;;;;;;;19.90;62.20;;;;;;5056530;28;19915;-60
2022/10/24 14:17:32;;;;;;;;;;;19.90;62.30;;;;;;5056729;28;20322;-60
2022/10/24 14:19:57;;;;;;;;;;;19.90;62.40;;;;;;5069509;28;19908;-60
2022/10/24 14:22:26;;;;;;;;;;;19.90;62.40;;;;;;5074412;28;19915;-60